sensor_id;sensor_type;location;lat;lon;timestamp;P1;durP1;ratioP1;P2;durP2;ratioP2
11247;SDS011;5681;53.316;13.950;2023-05-03T00:00:18;7.27;;;3.57;;
11247;SDS011;5681;53.316;13.950;2023-05-03T00:02:45;9.80;;;4.13;;
11247;SDS011;5681;53.316;13.950;2023-05-03T00:05:12;10.23;;;3.83;;
11247;SDS011;5681;53.316;13.950;2023-05-03T00:07:40;8.83;;;4.03;;
11247;SDS011;5681;53.316;13.950;2023-05-03T00:10:08;10.50;;;4.30;;
11247;SDS011;5681;53.316;13.950;2023-05-03T00:12:36;16.20;;;3.83;;
11247;SDS011;5681;53.316;13.950;2023-05-03T00:15:03;7.90;;;3.40;;
11247;SDS011;5681;53.316;13.950;2023-05-03T00:17:31;14.70;;;4.37;;
11247;SDS011;5681;53.316;13.950;2023-05-03T00:19:57;9.53;;;3.23;;
11247;SDS011;5681;53.316;13.950;2023-05-03T00:22:25;8.93;;;3.40;;
11247;SDS011;5681;53.316;13.950;2023-05-03T00:24:51;11.37;;;4.00;;
11247;SDS011;5681;53.316;13.950;2023-05-03T00:27:18;14.33;;;4.10;;
11247;SDS011;5681;53.316;13.950;2023-05-03T00:29:44;10.83;;;3.73;;
11247;SDS011;5681;53.316;13.950;2023-05-03T00:32:11;7.50;;;3.50;;
11247;SDS011;5681;53.316;13.950;2023-05-03T00:34:37;8.27;;;3.57;;
11247;SDS011;5681;53.316;13.950;2023-05-03T00:37:04;8.20;;;3.30;;
11247;SDS011;5681;53.316;13.950;2023-05-03T00:39:32;8.03;;;3.80;;
11247;SDS011;5681;53.316;13.950;2023-05-03T00:41:58;8.73;;;3.70;;
11247;SDS011;5681;53.316;13.950;2023-05-03T00:44:25;10.80;;;3.47;;
11247;SDS011;5681;53.316;13.950;2023-05-03T00:46:51;11.37;;;3.57;;
11247;SDS011;5681;53.316;13.950;2023-05-03T00:49:18;7.67;;;3.70;;
11247;SDS011;5681;53.316;13.950;2023-05-03T00:51:44;9.53;;;4.23;;
11247;SDS011;5681;53.316;13.950;2023-05-03T00:54:10;8.73;;;3.67;;
11247;SDS011;5681;53.316;13.950;2023-05-03T00:56:38;9.10;;;3.43;;
11247;SDS011;5681;53.316;13.950;2023-05-03T00:59:05;8.87;;;3.63;;
11247;SDS011;5681;53.316;13.950;2023-05-03T01:01:31;8.03;;;3.47;;
11247;SDS011;5681;53.316;13.950;2023-05-03T01:03:58;11.10;;;3.60;;
11247;SDS011;5681;53.316;13.950;2023-05-03T01:06:28;10.13;;;3.27;;
11247;SDS011;5681;53.316;13.950;2023-05-03T01:08:58;12.43;;;4.10;;
11247;SDS011;5681;53.316;13.950;2023-05-03T01:11:29;10.13;;;3.90;;
11247;SDS011;5681;53.316;13.950;2023-05-03T01:14:02;8.40;;;3.70;;
11247;SDS011;5681;53.316;13.950;2023-05-03T01:16:33;10.67;;;3.53;;
11247;SDS011;5681;53.316;13.950;2023-05-03T01:19:03;11.17;;;3.80;;
11247;SDS011;5681;53.316;13.950;2023-05-03T01:21:30;9.47;;;3.70;;
11247;SDS011;5681;53.316;13.950;2023-05-03T01:23:58;10.93;;;3.40;;
11247;SDS011;5681;53.316;13.950;2023-05-03T01:26:27;10.03;;;3.57;;
11247;SDS011;5681;53.316;13.950;2023-05-03T01:28:54;10.67;;;3.40;;
11247;SDS011;5681;53.316;13.950;2023-05-03T01:31:21;13.50;;;4.10;;
11247;SDS011;5681;53.316;13.950;2023-05-03T01:33:52;7.73;;;3.33;;
11247;SDS011;5681;53.316;13.950;2023-05-03T01:36:25;9.77;;;3.73;;
11247;SDS011;5681;53.316;13.950;2023-05-03T01:38:56;8.20;;;3.37;;
11247;SDS011;5681;53.316;13.950;2023-05-03T01:41:23;8.07;;;3.60;;
11247;SDS011;5681;53.316;13.950;2023-05-03T01:43:51;9.70;;;3.43;;
11247;SDS011;5681;53.316;13.950;2023-05-03T01:46:17;9.73;;;3.57;;
11247;SDS011;5681;53.316;13.950;2023-05-03T01:48:44;7.33;;;3.50;;
11247;SDS011;5681;53.316;13.950;2023-05-03T01:51:12;9.10;;;3.57;;
11247;SDS011;5681;53.316;13.950;2023-05-03T01:53:38;8.03;;;3.20;;
11247;SDS011;5681;53.316;13.950;2023-05-03T01:56:05;7.93;;;3.83;;
11247;SDS011;5681;53.316;13.950;2023-05-03T01:58:32;8.40;;;3.50;;
11247;SDS011;5681;53.316;13.950;2023-05-03T02:01:00;9.63;;;3.57;;
11247;SDS011;5681;53.316;13.950;2023-05-03T02:03:26;13.57;;;3.33;;
11247;SDS011;5681;53.316;13.950;2023-05-03T02:05:52;9.47;;;3.30;;
11247;SDS011;5681;53.316;13.950;2023-05-03T02:08:20;11.07;;;3.53;;
11247;SDS011;5681;53.316;13.950;2023-05-03T02:10:46;11.93;;;3.70;;
11247;SDS011;5681;53.316;13.950;2023-05-03T02:13:13;8.90;;;2.97;;
11247;SDS011;5681;53.316;13.950;2023-05-03T02:15:40;13.13;;;3.87;;
11247;SDS011;5681;53.316;13.950;2023-05-03T02:18:08;8.20;;;3.43;;
11247;SDS011;5681;53.316;13.950;2023-05-03T02:20:34;9.83;;;3.70;;
11247;SDS011;5681;53.316;13.950;2023-05-03T02:23:02;16.23;;;3.83;;
11247;SDS011;5681;53.316;13.950;2023-05-03T02:25:28;8.97;;;3.33;;
11247;SDS011;5681;53.316;13.950;2023-05-03T02:27:54;7.80;;;3.97;;
11247;SDS011;5681;53.316;13.950;2023-05-03T02:30:21;7.17;;;3.67;;
11247;SDS011;5681;53.316;13.950;2023-05-03T02:32:47;5.97;;;3.00;;
11247;SDS011;5681;53.316;13.950;2023-05-03T02:35:15;7.23;;;3.43;;
11247;SDS011;5681;53.316;13.950;2023-05-03T02:37:41;9.63;;;3.77;;
11247;SDS011;5681;53.316;13.950;2023-05-03T02:40:07;10.83;;;3.50;;
11247;SDS011;5681;53.316;13.950;2023-05-03T02:42:35;12.07;;;3.67;;
11247;SDS011;5681;53.316;13.950;2023-05-03T02:45:01;13.97;;;3.77;;
11247;SDS011;5681;53.316;13.950;2023-05-03T02:47:28;10.17;;;3.43;;
11247;SDS011;5681;53.316;13.950;2023-05-03T02:49:54;8.63;;;3.30;;
11247;SDS011;5681;53.316;13.950;2023-05-03T02:52:22;9.83;;;3.90;;
11247;SDS011;5681;53.316;13.950;2023-05-03T02:54:48;10.97;;;3.60;;
11247;SDS011;5681;53.316;13.950;2023-05-03T02:57:15;11.13;;;3.93;;
11247;SDS011;5681;53.316;13.950;2023-05-03T02:59:41;9.40;;;3.37;;
11247;SDS011;5681;53.316;13.950;2023-05-03T03:02:07;6.83;;;3.03;;
11247;SDS011;5681;53.316;13.950;2023-05-03T03:04:34;6.03;;;3.07;;
11247;SDS011;5681;53.316;13.950;2023-05-03T03:07:00;5.90;;;3.30;;
11247;SDS011;5681;53.316;13.950;2023-05-03T03:09:28;6.37;;;2.97;;
11247;SDS011;5681;53.316;13.950;2023-05-03T03:11:55;5.93;;;3.30;;
11247;SDS011;5681;53.316;13.950;2023-05-03T03:14:21;10.57;;;3.50;;
11247;SDS011;5681;53.316;13.950;2023-05-03T03:16:49;7.53;;;3.60;;
11247;SDS011;5681;53.316;13.950;2023-05-03T03:19:16;9.67;;;3.40;;
11247;SDS011;5681;53.316;13.950;2023-05-03T03:21:42;8.70;;;3.80;;
11247;SDS011;5681;53.316;13.950;2023-05-03T03:24:08;8.67;;;3.47;;
11247;SDS011;5681;53.316;13.950;2023-05-03T03:26:36;7.77;;;3.40;;
11247;SDS011;5681;53.316;13.950;2023-05-03T03:29:02;10.43;;;3.90;;
11247;SDS011;5681;53.316;13.950;2023-05-03T03:31:29;12.57;;;3.93;;
11247;SDS011;5681;53.316;13.950;2023-05-03T03:33:55;9.07;;;3.90;;
11247;SDS011;5681;53.316;13.950;2023-05-03T03:36:22;10.87;;;4.50;;
11247;SDS011;5681;53.316;13.950;2023-05-03T03:38:48;8.53;;;4.73;;
11247;SDS011;5681;53.316;13.950;2023-05-03T03:41:14;10.90;;;4.73;;
11247;SDS011;5681;53.316;13.950;2023-05-03T03:43:42;8.60;;;4.17;;
11247;SDS011;5681;53.316;13.950;2023-05-03T03:46:09;11.97;;;3.77;;
11247;SDS011;5681;53.316;13.950;2023-05-03T03:48:35;9.33;;;4.00;;
11247;SDS011;5681;53.316;13.950;2023-05-03T03:51:01;14.03;;;5.00;;
11247;SDS011;5681;53.316;13.950;2023-05-03T03:53:28;9.00;;;4.40;;
11247;SDS011;5681;53.316;13.950;2023-05-03T03:55:54;12.40;;;4.37;;
11247;SDS011;5681;53.316;13.950;2023-05-03T03:58:20;7.93;;;3.80;;
11247;SDS011;5681;53.316;13.950;2023-05-03T04:00:48;6.53;;;3.63;;
11247;SDS011;5681;53.316;13.950;2023-05-03T04:03:15;7.27;;;3.50;;
11247;SDS011;5681;53.316;13.950;2023-05-03T04:05:41;9.37;;;3.43;;
11247;SDS011;5681;53.316;13.950;2023-05-03T04:08:08;14.27;;;4.33;;
11247;SDS011;5681;53.316;13.950;2023-05-03T04:10:34;9.17;;;4.10;;
11247;SDS011;5681;53.316;13.950;2023-05-03T04:13:00;10.93;;;3.97;;
11247;SDS011;5681;53.316;13.950;2023-05-03T04:15:27;16.90;;;3.90;;
11247;SDS011;5681;53.316;13.950;2023-05-03T04:17:54;9.97;;;3.50;;
11247;SDS011;5681;53.316;13.950;2023-05-03T04:20:21;7.83;;;3.70;;
11247;SDS011;5681;53.316;13.950;2023-05-03T04:22:47;7.43;;;4.00;;
11247;SDS011;5681;53.316;13.950;2023-05-03T04:25:14;6.53;;;3.23;;
11247;SDS011;5681;53.316;13.950;2023-05-03T04:27:41;9.37;;;3.23;;
11247;SDS011;5681;53.316;13.950;2023-05-03T04:30:07;8.03;;;3.57;;
11247;SDS011;5681;53.316;13.950;2023-05-03T04:32:36;7.77;;;3.37;;
11247;SDS011;5681;53.316;13.950;2023-05-03T04:35:06;7.13;;;3.47;;
11247;SDS011;5681;53.316;13.950;2023-05-03T04:37:34;6.33;;;2.97;;
11247;SDS011;5681;53.316;13.950;2023-05-03T04:40:01;9.33;;;3.20;;
11247;SDS011;5681;53.316;13.950;2023-05-03T04:42:28;7.50;;;3.10;;
11247;SDS011;5681;53.316;13.950;2023-05-03T04:44:55;9.33;;;3.37;;
11247;SDS011;5681;53.316;13.950;2023-05-03T04:47:21;13.67;;;3.40;;
11247;SDS011;5681;53.316;13.950;2023-05-03T04:49:49;7.83;;;3.50;;
11247;SDS011;5681;53.316;13.950;2023-05-03T04:52:16;10.23;;;3.20;;
11247;SDS011;5681;53.316;13.950;2023-05-03T04:54:43;11.27;;;3.83;;
11247;SDS011;5681;53.316;13.950;2023-05-03T04:57:09;8.50;;;3.13;;
11247;SDS011;5681;53.316;13.950;2023-05-03T04:59:36;9.77;;;3.57;;
11247;SDS011;5681;53.316;13.950;2023-05-03T05:02:02;9.67;;;3.80;;
11247;SDS011;5681;53.316;13.950;2023-05-03T05:04:28;11.33;;;3.90;;
11247;SDS011;5681;53.316;13.950;2023-05-03T05:06:55;9.33;;;3.60;;
11247;SDS011;5681;53.316;13.950;2023-05-03T05:09:23;9.87;;;3.33;;
11247;SDS011;5681;53.316;13.950;2023-05-03T05:11:50;7.60;;;3.27;;
11247;SDS011;5681;53.316;13.950;2023-05-03T05:14:17;9.83;;;4.33;;
11247;SDS011;5681;53.316;13.950;2023-05-03T05:16:43;13.83;;;4.03;;
11247;SDS011;5681;53.316;13.950;2023-05-03T05:19:10;8.30;;;3.17;;
11247;SDS011;5681;53.316;13.950;2023-05-03T05:21:37;9.67;;;3.30;;
11247;SDS011;5681;53.316;13.950;2023-05-03T05:24:03;10.33;;;3.20;;
11247;SDS011;5681;53.316;13.950;2023-05-03T05:26:34;7.73;;;3.40;;
11247;SDS011;5681;53.316;13.950;2023-05-03T05:29:00;12.13;;;3.30;;
11247;SDS011;5681;53.316;13.950;2023-05-03T05:31:26;11.53;;;3.70;;
11247;SDS011;5681;53.316;13.950;2023-05-03T05:33:53;7.63;;;3.40;;
11247;SDS011;5681;53.316;13.950;2023-05-03T05:36:19;11.87;;;3.47;;
11247;SDS011;5681;53.316;13.950;2023-05-03T05:38:45;11.80;;;3.53;;
11247;SDS011;5681;53.316;13.950;2023-05-03T05:41:12;7.93;;;3.33;;
11247;SDS011;5681;53.316;13.950;2023-05-03T05:43:39;10.27;;;3.07;;
11247;SDS011;5681;53.316;13.950;2023-05-03T05:46:06;12.07;;;3.67;;
11247;SDS011;5681;53.316;13.950;2023-05-03T05:48:32;9.68;;;3.50;;
11247;SDS011;5681;53.316;13.950;2023-05-03T05:50:58;9.85;;;3.95;;
11247;SDS011;5681;53.316;13.950;2023-05-03T05:53:25;8.23;;;3.40;;
11247;SDS011;5681;53.316;13.950;2023-05-03T05:55:51;8.40;;;3.60;;
11247;SDS011;5681;53.316;13.950;2023-05-03T05:58:18;8.65;;;3.83;;
11247;SDS011;5681;53.316;13.950;2023-05-03T06:00:46;11.27;;;3.63;;
11247;SDS011;5681;53.316;13.950;2023-05-03T06:03:13;12.20;;;3.60;;
11247;SDS011;5681;53.316;13.950;2023-05-03T06:05:39;11.30;;;3.47;;
11247;SDS011;5681;53.316;13.950;2023-05-03T06:08:06;10.40;;;3.72;;
11247;SDS011;5681;53.316;13.950;2023-05-03T06:10:32;9.82;;;3.60;;
11247;SDS011;5681;53.316;13.950;2023-05-03T06:12:58;11.27;;;3.80;;
11247;SDS011;5681;53.316;13.950;2023-05-03T06:15:25;11.23;;;3.42;;
11247;SDS011;5681;53.316;13.950;2023-05-03T06:17:53;9.80;;;3.58;;
11247;SDS011;5681;53.316;13.950;2023-05-03T06:20:19;12.45;;;3.88;;
11247;SDS011;5681;53.316;13.950;2023-05-03T06:22:51;9.30;;;3.20;;
11247;SDS011;5681;53.316;13.950;2023-05-03T06:25:17;11.38;;;3.72;;
11247;SDS011;5681;53.316;13.950;2023-05-03T06:27:44;7.28;;;3.20;;
11247;SDS011;5681;53.316;13.950;2023-05-03T06:30:10;10.57;;;3.50;;
11247;SDS011;5681;53.316;13.950;2023-05-03T06:32:37;12.60;;;3.53;;
11247;SDS011;5681;53.316;13.950;2023-05-03T06:35:06;10.05;;;3.50;;
11247;SDS011;5681;53.316;13.950;2023-05-03T06:37:33;8.68;;;3.35;;
11247;SDS011;5681;53.316;13.950;2023-05-03T06:40:00;8.48;;;3.53;;
11247;SDS011;5681;53.316;13.950;2023-05-03T06:42:26;12.10;;;3.45;;
11247;SDS011;5681;53.316;13.950;2023-05-03T06:44:52;13.75;;;3.97;;
11247;SDS011;5681;53.316;13.950;2023-05-03T06:47:19;11.75;;;3.92;;
11247;SDS011;5681;53.316;13.950;2023-05-03T06:49:45;6.60;;;2.83;;
11247;SDS011;5681;53.316;13.950;2023-05-03T06:52:13;10.00;;;3.20;;
11247;SDS011;5681;53.316;13.950;2023-05-03T06:54:40;9.32;;;3.45;;
11247;SDS011;5681;53.316;13.950;2023-05-03T06:57:06;12.88;;;4.28;;
11247;SDS011;5681;53.316;13.950;2023-05-03T06:59:34;11.73;;;4.03;;
11247;SDS011;5681;53.316;13.950;2023-05-03T07:02:00;11.52;;;4.03;;
11247;SDS011;5681;53.316;13.950;2023-05-03T07:04:27;7.57;;;3.92;;
11247;SDS011;5681;53.316;13.950;2023-05-03T07:06:53;15.07;;;4.38;;
11247;SDS011;5681;53.316;13.950;2023-05-03T07:09:21;14.98;;;4.55;;
11247;SDS011;5681;53.316;13.950;2023-05-03T07:11:48;12.32;;;4.35;;
11247;SDS011;5681;53.316;13.950;2023-05-03T07:14:15;6.78;;;3.90;;
11247;SDS011;5681;53.316;13.950;2023-05-03T07:16:42;19.10;;;4.03;;
11247;SDS011;5681;53.316;13.950;2023-05-03T07:19:08;15.35;;;4.40;;
11247;SDS011;5681;53.316;13.950;2023-05-03T07:21:35;10.15;;;3.92;;
11247;SDS011;5681;53.316;13.950;2023-05-03T07:24:01;12.27;;;3.90;;
11247;SDS011;5681;53.316;13.950;2023-05-03T07:26:29;7.00;;;3.45;;
11247;SDS011;5681;53.316;13.950;2023-05-03T07:28:55;14.15;;;4.32;;
11247;SDS011;5681;53.316;13.950;2023-05-03T07:31:21;14.18;;;3.67;;
11247;SDS011;5681;53.316;13.950;2023-05-03T07:33:48;12.07;;;4.15;;
11247;SDS011;5681;53.316;13.950;2023-05-03T07:36:15;10.93;;;3.80;;
11247;SDS011;5681;53.316;13.950;2023-05-03T07:38:41;12.05;;;3.50;;
11247;SDS011;5681;53.316;13.950;2023-05-03T07:41:07;12.20;;;3.90;;
11247;SDS011;5681;53.316;13.950;2023-05-03T07:43:35;10.45;;;4.10;;
11247;SDS011;5681;53.316;13.950;2023-05-03T07:46:02;7.72;;;3.13;;
11247;SDS011;5681;53.316;13.950;2023-05-03T07:48:28;11.85;;;3.90;;
11247;SDS011;5681;53.316;13.950;2023-05-03T07:50:54;10.85;;;3.80;;
11247;SDS011;5681;53.316;13.950;2023-05-03T07:53:21;8.88;;;3.53;;
11247;SDS011;5681;53.316;13.950;2023-05-03T07:55:47;8.70;;;3.40;;
11247;SDS011;5681;53.316;13.950;2023-05-03T07:58:13;8.98;;;3.55;;
11247;SDS011;5681;53.316;13.950;2023-05-03T08:00:41;11.07;;;3.72;;
11247;SDS011;5681;53.316;13.950;2023-05-03T08:03:08;9.25;;;3.53;;
11247;SDS011;5681;53.316;13.950;2023-05-03T08:05:34;7.43;;;3.33;;
11247;SDS011;5681;53.316;13.950;2023-05-03T08:08:00;12.40;;;3.38;;
11247;SDS011;5681;53.316;13.950;2023-05-03T08:10:29;12.70;;;3.47;;
11247;SDS011;5681;53.316;13.950;2023-05-03T08:12:56;9.18;;;3.10;;
11247;SDS011;5681;53.316;13.950;2023-05-03T08:15:22;10.35;;;3.70;;
11247;SDS011;5681;53.316;13.950;2023-05-03T08:17:49;8.57;;;3.30;;
11247;SDS011;5681;53.316;13.950;2023-05-03T08:20:16;7.75;;;3.17;;
11247;SDS011;5681;53.316;13.950;2023-05-03T08:22:43;8.73;;;2.33;;
11247;SDS011;5681;53.316;13.950;2023-05-03T08:25:10;10.32;;;3.13;;
11247;SDS011;5681;53.316;13.950;2023-05-03T08:27:36;7.93;;;2.78;;
11247;SDS011;5681;53.316;13.950;2023-05-03T08:30:04;9.15;;;3.10;;
11247;SDS011;5681;53.316;13.950;2023-05-03T08:32:31;6.97;;;3.10;;
11247;SDS011;5681;53.316;13.950;2023-05-03T08:34:59;8.90;;;3.05;;
11247;SDS011;5681;53.316;13.950;2023-05-03T08:37:35;11.02;;;3.42;;
11247;SDS011;5681;53.316;13.950;2023-05-03T08:40:03;7.97;;;3.15;;
11247;SDS011;5681;53.316;13.950;2023-05-03T08:42:31;10.88;;;3.50;;
11247;SDS011;5681;53.316;13.950;2023-05-03T08:44:58;7.63;;;2.92;;
11247;SDS011;5681;53.316;13.950;2023-05-03T08:47:25;10.93;;;3.13;;
11247;SDS011;5681;53.316;13.950;2023-05-03T08:49:52;9.43;;;3.67;;
11247;SDS011;5681;53.316;13.950;2023-05-03T08:52:20;7.18;;;2.90;;
11247;SDS011;5681;53.316;13.950;2023-05-03T08:54:47;10.93;;;4.32;;
11247;SDS011;5681;53.316;13.950;2023-05-03T08:57:14;7.97;;;3.00;;
11247;SDS011;5681;53.316;13.950;2023-05-03T08:59:45;6.93;;;3.05;;
11247;SDS011;5681;53.316;13.950;2023-05-03T09:02:13;9.07;;;3.05;;
11247;SDS011;5681;53.316;13.950;2023-05-03T09:04:39;8.82;;;3.00;;
11247;SDS011;5681;53.316;13.950;2023-05-03T09:07:06;8.85;;;3.30;;
11247;SDS011;5681;53.316;13.950;2023-05-03T09:09:34;9.43;;;3.38;;
11247;SDS011;5681;53.316;13.950;2023-05-03T09:12:01;9.30;;;3.85;;
11247;SDS011;5681;53.316;13.950;2023-05-03T09:14:27;7.50;;;3.33;;
11247;SDS011;5681;53.316;13.950;2023-05-03T09:16:54;6.05;;;2.72;;
11247;SDS011;5681;53.316;13.950;2023-05-03T09:19:20;10.32;;;3.20;;
11247;SDS011;5681;53.316;13.950;2023-05-03T09:21:48;8.43;;;2.90;;
11247;SDS011;5681;53.316;13.950;2023-05-03T09:24:15;8.98;;;3.40;;
11247;SDS011;5681;53.316;13.950;2023-05-03T09:26:44;8.25;;;3.60;;
11247;SDS011;5681;53.316;13.950;2023-05-03T09:29:25;9.68;;;3.30;;
11247;SDS011;5681;53.316;13.950;2023-05-03T09:31:56;9.07;;;3.10;;
11247;SDS011;5681;53.316;13.950;2023-05-03T09:34:24;9.90;;;3.55;;
11247;SDS011;5681;53.316;13.950;2023-05-03T09:36:50;8.30;;;3.10;;
11247;SDS011;5681;53.316;13.950;2023-05-03T09:39:17;6.80;;;2.95;;
11247;SDS011;5681;53.316;13.950;2023-05-03T09:41:45;10.85;;;2.90;;
11247;SDS011;5681;53.316;13.950;2023-05-03T09:44:11;8.80;;;2.70;;
11247;SDS011;5681;53.316;13.950;2023-05-03T09:46:38;6.13;;;2.60;;
11247;SDS011;5681;53.316;13.950;2023-05-03T09:49:05;9.63;;;2.80;;
11247;SDS011;5681;53.316;13.950;2023-05-03T09:51:31;6.18;;;2.83;;
11247;SDS011;5681;53.316;13.950;2023-05-03T09:53:58;14.63;;;3.35;;
11247;SDS011;5681;53.316;13.950;2023-05-03T09:56:25;7.63;;;2.80;;
11247;SDS011;5681;53.316;13.950;2023-05-03T09:58:53;10.77;;;4.00;;
11247;SDS011;5681;53.316;13.950;2023-05-03T10:01:19;9.07;;;3.20;;
11247;SDS011;5681;53.316;13.950;2023-05-03T10:03:47;9.02;;;3.63;;
11247;SDS011;5681;53.316;13.950;2023-05-03T10:06:22;7.07;;;2.83;;
11247;SDS011;5681;53.316;13.950;2023-05-03T10:08:56;8.02;;;2.75;;
11247;SDS011;5681;53.316;13.950;2023-05-03T10:11:29;5.00;;;2.30;;
11247;SDS011;5681;53.316;13.950;2023-05-03T10:14:00;4.72;;;2.30;;
11247;SDS011;5681;53.316;13.950;2023-05-03T10:16:28;5.75;;;2.20;;
11247;SDS011;5681;53.316;13.950;2023-05-03T10:18:58;6.55;;;2.38;;
11247;SDS011;5681;53.316;13.950;2023-05-03T10:21:32;7.85;;;3.10;;
11247;SDS011;5681;53.316;13.950;2023-05-03T10:24:10;8.07;;;4.00;;
11247;SDS011;5681;53.316;13.950;2023-05-03T10:26:41;10.63;;;3.63;;
11247;SDS011;5681;53.316;13.950;2023-05-03T10:32:27;8.30;;;2.45;;
11247;SDS011;5681;53.316;13.950;2023-05-03T10:34:55;8.48;;;2.60;;
11247;SDS011;5681;53.316;13.950;2023-05-03T10:37:24;9.60;;;3.00;;
11247;SDS011;5681;53.316;13.950;2023-05-03T10:39:52;7.82;;;2.60;;
11247;SDS011;5681;53.316;13.950;2023-05-03T10:42:20;5.57;;;2.17;;
11247;SDS011;5681;53.316;13.950;2023-05-03T10:44:50;5.15;;;2.35;;
11247;SDS011;5681;53.316;13.950;2023-05-03T10:47:17;5.95;;;2.65;;
11247;SDS011;5681;53.316;13.950;2023-05-03T10:49:48;7.80;;;2.63;;
11247;SDS011;5681;53.316;13.950;2023-05-03T10:52:49;7.22;;;2.80;;
11247;SDS011;5681;53.316;13.950;2023-05-03T10:55:16;5.78;;;2.60;;
11247;SDS011;5681;53.316;13.950;2023-05-03T10:57:45;7.45;;;2.50;;
11247;SDS011;5681;53.316;13.950;2023-05-03T11:00:12;9.50;;;2.80;;
11247;SDS011;5681;53.316;13.950;2023-05-03T11:02:41;7.07;;;3.05;;
11247;SDS011;5681;53.316;13.950;2023-05-03T11:05:18;10.55;;;2.75;;
11247;SDS011;5681;53.316;13.950;2023-05-03T11:07:45;6.65;;;2.47;;
11247;SDS011;5681;53.316;13.950;2023-05-03T11:10:16;5.13;;;2.60;;
11247;SDS011;5681;53.316;13.950;2023-05-03T11:12:43;6.57;;;2.38;;
11247;SDS011;5681;53.316;13.950;2023-05-03T11:15:10;5.30;;;2.58;;
11247;SDS011;5681;53.316;13.950;2023-05-03T11:17:36;7.10;;;2.45;;
11247;SDS011;5681;53.316;13.950;2023-05-03T11:20:04;4.38;;;2.13;;
11247;SDS011;5681;53.316;13.950;2023-05-03T11:22:35;7.22;;;2.30;;
11247;SDS011;5681;53.316;13.950;2023-05-03T11:25:01;5.45;;;2.45;;
11247;SDS011;5681;53.316;13.950;2023-05-03T11:27:28;6.32;;;2.10;;
11247;SDS011;5681;53.316;13.950;2023-05-03T11:29:54;4.97;;;2.10;;
11247;SDS011;5681;53.316;13.950;2023-05-03T11:32:24;4.57;;;2.17;;
11247;SDS011;5681;53.316;13.950;2023-05-03T11:34:51;6.68;;;2.15;;
11247;SDS011;5681;53.316;13.950;2023-05-03T11:37:18;4.32;;;2.10;;
11247;SDS011;5681;53.316;13.950;2023-05-03T11:39:45;5.55;;;2.45;;
11247;SDS011;5681;53.316;13.950;2023-05-03T11:42:12;5.57;;;2.17;;
11247;SDS011;5681;53.316;13.950;2023-05-03T11:44:39;5.85;;;2.42;;
11247;SDS011;5681;53.316;13.950;2023-05-03T11:47:05;6.63;;;2.13;;
11247;SDS011;5681;53.316;13.950;2023-05-03T11:49:33;4.95;;;2.10;;
11247;SDS011;5681;53.316;13.950;2023-05-03T11:51:59;7.18;;;2.17;;
11247;SDS011;5681;53.316;13.950;2023-05-03T11:54:25;7.25;;;2.50;;
11247;SDS011;5681;53.316;13.950;2023-05-03T11:56:55;3.95;;;1.75;;
11247;SDS011;5681;53.316;13.950;2023-05-03T11:59:32;5.32;;;2.17;;
11247;SDS011;5681;53.316;13.950;2023-05-03T12:02:00;5.22;;;2.10;;
11247;SDS011;5681;53.316;13.950;2023-05-03T12:04:27;6.28;;;2.20;;
11247;SDS011;5681;53.316;13.950;2023-05-03T12:06:54;7.72;;;2.47;;
11247;SDS011;5681;53.316;13.950;2023-05-03T12:09:23;7.07;;;1.88;;
11247;SDS011;5681;53.316;13.950;2023-05-03T12:11:49;5.07;;;1.88;;
11247;SDS011;5681;53.316;13.950;2023-05-03T12:14:17;5.47;;;1.92;;
11247;SDS011;5681;53.316;13.950;2023-05-03T12:16:45;7.10;;;2.35;;
11247;SDS011;5681;53.316;13.950;2023-05-03T12:19:21;4.50;;;2.13;;
11247;SDS011;5681;53.316;13.950;2023-05-03T12:21:48;6.72;;;2.28;;
11247;SDS011;5681;53.316;13.950;2023-05-03T12:24:15;4.22;;;2.20;;
11247;SDS011;5681;53.316;13.950;2023-05-03T12:26:43;8.30;;;2.10;;
11247;SDS011;5681;53.316;13.950;2023-05-03T12:29:10;7.03;;;2.15;;
11247;SDS011;5681;53.316;13.950;2023-05-03T12:31:38;7.80;;;2.20;;
11247;SDS011;5681;53.316;13.950;2023-05-03T12:34:04;6.20;;;2.15;;
11247;SDS011;5681;53.316;13.950;2023-05-03T12:36:31;4.75;;;2.28;;
11247;SDS011;5681;53.316;13.950;2023-05-03T12:38:58;4.57;;;1.80;;
11247;SDS011;5681;53.316;13.950;2023-05-03T12:41:24;6.60;;;1.75;;
11247;SDS011;5681;53.316;13.950;2023-05-03T12:43:53;6.93;;;2.08;;
11247;SDS011;5681;53.316;13.950;2023-05-03T12:46:20;4.93;;;2.10;;
11247;SDS011;5681;53.316;13.950;2023-05-03T12:48:49;5.15;;;1.77;;
11247;SDS011;5681;53.316;13.950;2023-05-03T12:51:15;5.47;;;1.88;;
11247;SDS011;5681;53.316;13.950;2023-05-03T12:53:42;4.65;;;1.70;;
11247;SDS011;5681;53.316;13.950;2023-05-03T12:56:09;10.02;;;2.00;;
11247;SDS011;5681;53.316;13.950;2023-05-03T12:58:36;7.10;;;2.00;;
11247;SDS011;5681;53.316;13.950;2023-05-03T13:01:02;5.90;;;2.10;;
11247;SDS011;5681;53.316;13.950;2023-05-03T13:03:29;5.38;;;2.15;;
11247;SDS011;5681;53.316;13.950;2023-05-03T13:05:57;4.97;;;2.30;;
11247;SDS011;5681;53.316;13.950;2023-05-03T13:08:23;7.13;;;2.03;;
11247;SDS011;5681;53.316;13.950;2023-05-03T13:10:50;3.92;;;1.75;;
11247;SDS011;5681;53.316;13.950;2023-05-03T13:13:16;5.68;;;2.10;;
11247;SDS011;5681;53.316;13.950;2023-05-03T13:15:43;6.30;;;1.88;;
11247;SDS011;5681;53.316;13.950;2023-05-03T13:18:09;4.70;;;1.83;;
11247;SDS011;5681;53.316;13.950;2023-05-03T13:20:38;3.63;;;1.80;;
11247;SDS011;5681;53.316;13.950;2023-05-03T13:23:06;6.28;;;1.83;;
11247;SDS011;5681;53.316;13.950;2023-05-03T13:25:32;6.45;;;1.90;;
11247;SDS011;5681;53.316;13.950;2023-05-03T13:27:59;5.15;;;2.10;;
11247;SDS011;5681;53.316;13.950;2023-05-03T13:30:25;5.20;;;1.80;;
11247;SDS011;5681;53.316;13.950;2023-05-03T13:32:52;8.40;;;2.00;;
11247;SDS011;5681;53.316;13.950;2023-05-03T13:35:18;3.63;;;1.67;;
11247;SDS011;5681;53.316;13.950;2023-05-03T13:37:45;4.78;;;2.10;;
11247;SDS011;5681;53.316;13.950;2023-05-03T13:40:13;5.03;;;1.60;;
11247;SDS011;5681;53.316;13.950;2023-05-03T13:42:39;4.97;;;1.73;;
11247;SDS011;5681;53.316;13.950;2023-05-03T13:45:06;5.20;;;1.98;;
11247;SDS011;5681;53.316;13.950;2023-05-03T13:47:33;6.22;;;2.20;;
11247;SDS011;5681;53.316;13.950;2023-05-03T13:49:59;5.15;;;2.25;;
11247;SDS011;5681;53.316;13.950;2023-05-03T13:52:26;8.15;;;2.05;;
11247;SDS011;5681;53.316;13.950;2023-05-03T13:54:52;7.72;;;1.88;;
11247;SDS011;5681;53.316;13.950;2023-05-03T13:57:20;5.07;;;2.10;;
11247;SDS011;5681;53.316;13.950;2023-05-03T13:59:47;6.65;;;2.05;;
11247;SDS011;5681;53.316;13.950;2023-05-03T14:02:14;7.20;;;1.70;;
11247;SDS011;5681;53.316;13.950;2023-05-03T14:04:41;3.35;;;1.55;;
11247;SDS011;5681;53.316;13.950;2023-05-03T14:07:07;4.35;;;1.70;;
11247;SDS011;5681;53.316;13.950;2023-05-03T14:09:34;5.85;;;1.83;;
11247;SDS011;5681;53.316;13.950;2023-05-03T14:12:03;4.20;;;1.90;;
11247;SDS011;5681;53.316;13.950;2023-05-03T14:14:32;4.07;;;2.17;;
11247;SDS011;5681;53.316;13.950;2023-05-03T14:16:58;6.47;;;2.35;;
11247;SDS011;5681;53.316;13.950;2023-05-03T14:19:25;3.50;;;1.63;;
11247;SDS011;5681;53.316;13.950;2023-05-03T14:21:54;5.30;;;1.65;;
11247;SDS011;5681;53.316;13.950;2023-05-03T14:24:23;5.35;;;1.80;;
11247;SDS011;5681;53.316;13.950;2023-05-03T14:26:50;4.05;;;1.60;;
11247;SDS011;5681;53.316;13.950;2023-05-03T14:29:16;4.57;;;1.90;;
11247;SDS011;5681;53.316;13.950;2023-05-03T14:31:44;6.75;;;1.98;;
11247;SDS011;5681;53.316;13.950;2023-05-03T14:34:10;4.63;;;1.70;;
11247;SDS011;5681;53.316;13.950;2023-05-03T14:36:36;3.83;;;1.75;;
11247;SDS011;5681;53.316;13.950;2023-05-03T14:39:07;4.80;;;1.90;;
11247;SDS011;5681;53.316;13.950;2023-05-03T14:41:33;4.57;;;1.80;;
11247;SDS011;5681;53.316;13.950;2023-05-03T14:44:00;4.53;;;1.58;;
11247;SDS011;5681;53.316;13.950;2023-05-03T14:46:27;4.57;;;1.92;;